createdAt,value
2019-06-01T00:01:02.811Z,10.15
2019-06-01T00:03:06.510Z,11.05
2019-06-01T00:05:10.712Z,10.88
2019-06-01T00:07:15.189Z,10.85
2019-06-01T00:09:18.803Z,11.12
2019-06-01T00:11:22.393Z,11.73
2019-06-01T00:13:26.710Z,10.93
2019-06-01T00:15:30.282Z,12.05
2019-06-01T00:17:33.969Z,11.80
2019-06-01T00:19:37.699Z,11.55
2019-06-01T00:21:41.247Z,12.75
2019-06-01T00:23:46.471Z,12.43
2019-06-01T00:25:50.070Z,12.40
2019-06-01T00:27:53.633Z,13.10
2019-06-01T00:29:57.462Z,13.65
2019-06-01T00:32:01.466Z,12.50
2019-06-01T00:34:05.085Z,13.53
2019-06-01T00:36:08.625Z,13.00
2019-06-01T00:38:12.201Z,12.50
2019-06-01T00:40:16.242Z,12.45
2019-06-01T00:42:19.891Z,12.20
2019-06-01T00:44:23.425Z,11.33
2019-06-01T00:46:27.037Z,12.45
2019-06-01T00:48:30.537Z,12.85
2019-06-01T00:50:34.080Z,12.30
2019-06-01T00:52:37.640Z,11.95
2019-06-01T00:54:41.166Z,12.95
2019-06-01T00:56:45.597Z,12.75
2019-06-01T00:58:49.839Z,12.98
2019-06-01T01:00:54.896Z,13.95
2019-06-01T01:02:59.118Z,12.40
2019-06-01T01:05:17.965Z,11.43
2019-06-01T01:07:21.874Z,11.50
2019-06-01T01:09:25.673Z,12.28
2019-06-01T01:11:29.147Z,12.45
2019-06-01T01:13:32.801Z,12.53
2019-06-01T01:15:37.108Z,13.32
2019-06-01T01:17:44.176Z,12.53
2019-06-01T01:19:48.271Z,12.10
2019-06-01T01:21:52.195Z,15.18
2019-06-01T01:23:56.665Z,16.82
2019-06-01T01:26:00.336Z,15.83
2019-06-01T01:28:04.186Z,18.00
2019-06-01T01:30:07.906Z,16.90
2019-06-01T01:32:12.385Z,18.37
2019-06-01T01:34:15.865Z,17.12
2019-06-01T01:36:19.405Z,14.93
2019-06-01T01:38:22.958Z,16.73
2019-06-01T01:40:27.621Z,17.30
2019-06-01T01:42:31.098Z,17.65
2019-06-01T01:44:34.641Z,15.68
2019-06-01T01:46:38.116Z,17.02
2019-06-01T01:48:41.747Z,15.78
2019-06-01T01:50:45.358Z,17.12
2019-06-01T01:52:48.911Z,17.55
2019-06-01T01:54:52.812Z,17.10
2019-06-01T01:56:56.426Z,18.55
2019-06-01T01:58:59.970Z,18.42
2019-06-01T02:01:20.757Z,18.35
2019-06-01T02:03:09.274Z,17.80
2019-06-01T02:05:13.269Z,19.02
2019-06-01T02:07:16.817Z,19.92
2019-06-01T02:09:20.353Z,18.90
2019-06-01T02:11:23.953Z,20.00
2019-06-01T02:13:27.478Z,18.62
2019-06-01T02:15:31.919Z,19.70
2019-06-01T02:17:35.464Z,22.45
2019-06-01T02:19:39.298Z,26.50
2019-06-01T02:21:42.886Z,23.30
2019-06-01T02:23:46.437Z,24.77
2019-06-01T02:25:50.395Z,28.57
2019-06-01T02:27:55.037Z,34.80
2019-06-01T02:29:59.387Z,30.50
2019-06-01T02:32:04.698Z,23.77
2019-06-01T02:34:08.325Z,30.45
2019-06-01T02:36:11.869Z,24.10
2019-06-01T02:38:15.729Z,24.32
2019-06-01T02:40:20.210Z,23.22
2019-06-01T02:42:23.760Z,22.42
2019-06-01T02:44:27.334Z,23.95
2019-06-01T02:46:35.333Z,33.60
2019-06-01T02:48:36.339Z,45.55
2019-06-01T02:50:39.882Z,42.33
2019-06-01T02:52:43.802Z,41.63
2019-06-01T02:54:48.178Z,45.28
2019-06-01T02:56:51.719Z,38.67
2019-06-01T02:58:56.107Z,31.23
2019-06-01T03:01:14.856Z,34.50
2019-06-01T03:03:18.764Z,30.15
2019-06-01T03:05:22.445Z,27.30
2019-06-01T03:07:29.075Z,23.95
2019-06-01T03:09:34.957Z,21.60
2019-06-01T03:11:41.032Z,20.43
2019-06-01T03:13:46.817Z,21.40
2019-06-01T03:15:53.441Z,25.10
2019-06-01T03:18:01.539Z,19.40
2019-06-01T03:20:07.863Z,19.05
2019-06-01T03:22:14.838Z,18.12
2019-06-01T03:24:21.505Z,16.85
2019-06-01T03:26:28.485Z,17.02
2019-06-01T03:28:35.150Z,15.35
2019-06-01T03:30:45.415Z,11.60
2019-06-01T03:32:48.385Z,13.93
2019-06-01T03:34:52.111Z,14.23
2019-06-01T03:36:56.355Z,10.63
2019-06-01T03:39:00.056Z,7.97
2019-06-01T03:41:03.995Z,7.80
2019-06-01T03:43:09.242Z,7.78
2019-06-01T03:45:13.272Z,7.90
2019-06-01T03:47:17.325Z,9.63
2019-06-01T03:49:20.869Z,10.65
2019-06-01T03:51:24.725Z,10.20
2019-06-01T03:53:28.378Z,10.40
2019-06-01T03:55:31.921Z,14.25
2019-06-01T03:57:35.552Z,14.87
2019-06-01T03:59:39.097Z,15.15
2019-06-01T04:01:42.752Z,14.20
2019-06-01T04:03:46.981Z,14.53
2019-06-01T04:05:50.458Z,13.75
2019-06-01T04:07:54.041Z,14.10
2019-06-01T04:09:57.585Z,14.45
2019-06-01T04:12:01.434Z,14.55
2019-06-01T04:14:05.797Z,14.43
2019-06-01T04:16:10.035Z,14.20
2019-06-01T04:18:14.089Z,14.60
2019-06-01T04:20:18.062Z,13.85
2019-06-01T04:22:21.602Z,16.05
2019-06-01T04:24:26.399Z,15.00
2019-06-01T04:26:30.065Z,14.75
2019-06-01T04:28:33.557Z,14.30
2019-06-01T04:30:37.077Z,14.20
2019-06-01T04:32:49.877Z,12.98
2019-06-01T04:34:46.193Z,13.38
2019-06-01T04:36:50.630Z,13.03
2019-06-01T04:38:54.173Z,13.03
2019-06-01T04:40:58.622Z,13.60
2019-06-01T04:43:02.161Z,12.10
2019-06-01T04:45:08.904Z,12.95
2019-06-01T04:47:12.630Z,12.58
2019-06-01T04:49:16.497Z,12.58
2019-06-01T04:51:21.137Z,12.43
2019-06-01T04:53:25.047Z,12.95
2019-06-01T04:55:28.981Z,12.98
2019-06-01T04:57:32.724Z,12.35
2019-06-01T04:59:37.893Z,13.58
2019-06-01T05:01:41.620Z,12.30
2019-06-01T05:03:46.725Z,12.23
2019-06-01T05:05:52.665Z,12.85
2019-06-01T05:07:56.313Z,11.80
2019-06-01T05:09:59.899Z,12.40
2019-06-01T05:12:03.549Z,11.88
2019-06-01T05:14:07.573Z,12.10
2019-06-01T05:16:13.376Z,12.37
2019-06-01T05:18:19.528Z,12.47
2019-06-01T05:20:22.629Z,12.45
2019-06-01T05:22:26.592Z,12.35
2019-06-01T05:24:30.174Z,11.60
2019-06-01T05:26:33.719Z,11.90
2019-06-01T05:28:37.719Z,11.63
2019-06-01T05:30:41.886Z,12.28
2019-06-01T05:32:45.421Z,12.43
2019-06-01T05:34:48.952Z,12.13
2019-06-01T05:36:52.516Z,10.90
2019-06-01T05:38:56.054Z,10.68
2019-06-01T05:41:00.746Z,10.48
2019-06-01T05:43:04.715Z,10.90
2019-06-01T05:45:11.293Z,9.60
2019-06-01T05:47:16.230Z,9.93
2019-06-01T05:49:19.796Z,10.32
2019-06-01T05:51:23.345Z,9.80
2019-06-01T05:53:27.219Z,9.20
2019-06-01T05:55:31.005Z,10.82
2019-06-01T05:57:34.550Z,10.40
2019-06-01T05:59:38.093Z,10.88
2019-06-01T06:01:41.894Z,11.10
2019-06-01T06:03:46.324Z,12.20
2019-06-01T06:05:49.796Z,9.15
2019-06-01T06:07:53.338Z,9.35
2019-06-01T06:09:57.741Z,9.43
2019-06-01T06:12:01.338Z,8.08
2019-06-01T06:14:05.630Z,8.10
2019-06-01T06:16:09.180Z,7.53
2019-06-01T06:18:13.670Z,8.33
2019-06-01T06:20:18.029Z,7.67
2019-06-01T06:22:22.494Z,7.03
2019-06-01T06:24:26.431Z,7.05
2019-06-01T06:26:30.142Z,7.95
2019-06-01T06:28:34.025Z,7.80
2019-06-01T06:30:37.800Z,8.28
2019-06-01T06:32:41.370Z,7.20
2019-06-01T06:34:44.957Z,7.10
2019-06-01T06:36:48.594Z,7.45
2019-06-01T06:38:52.279Z,8.38
2019-06-01T06:40:57.365Z,8.33
2019-06-01T06:43:01.253Z,7.28
2019-06-01T06:45:07.324Z,6.90
2019-06-01T06:47:11.680Z,7.28
2019-06-01T06:49:15.498Z,7.50
2019-06-01T06:51:19.398Z,7.05
2019-06-01T06:53:32.389Z,7.40
2019-06-01T06:55:30.390Z,7.08
2019-06-01T06:57:34.061Z,6.87
2019-06-01T06:59:37.586Z,6.65
2019-06-01T07:01:41.145Z,6.45
2019-06-01T07:03:44.751Z,6.05
2019-06-01T07:05:48.778Z,6.10
2019-06-01T07:07:52.241Z,5.92
2019-06-01T07:09:55.891Z,5.53
2019-06-01T07:11:59.456Z,6.35
2019-06-01T07:14:02.984Z,5.35
2019-06-01T07:16:06.527Z,5.35
2019-06-01T07:18:12.824Z,4.00
2019-06-01T07:20:16.585Z,4.22
2019-06-01T07:22:20.044Z,3.50
2019-06-01T07:24:23.932Z,3.80
2019-06-01T07:26:28.215Z,4.05
2019-06-01T07:28:32.449Z,3.80
2019-06-01T07:30:49.718Z,3.80
2019-06-01T07:32:43.771Z,3.72
2019-06-01T07:34:48.953Z,3.58
2019-06-01T07:36:53.277Z,4.10
2019-06-01T07:38:56.809Z,3.55
2019-06-01T07:41:01.214Z,3.00
2019-06-01T07:43:04.858Z,3.05
2019-06-01T07:45:09.071Z,3.00
2019-06-01T07:47:13.027Z,2.92
2019-06-01T07:49:16.930Z,3.00
2019-06-01T07:51:23.602Z,3.30
2019-06-01T07:53:27.418Z,3.70
2019-06-01T07:55:31.763Z,3.50
2019-06-01T07:57:35.486Z,3.90
2019-06-01T07:59:39.201Z,3.83
2019-06-01T08:01:42.742Z,3.90
2019-06-01T08:03:46.285Z,3.77
2019-06-01T08:05:49.817Z,3.52
2019-06-01T08:07:53.290Z,3.60
2019-06-01T08:09:57.528Z,23.15
2019-06-01T08:12:01.188Z,13.05
2019-06-01T08:14:05.306Z,9.38
2019-06-01T08:16:09.370Z,4.80
2019-06-01T08:18:12.921Z,3.27
2019-06-01T08:20:16.757Z,2.85
2019-06-01T08:22:20.298Z,2.90
2019-06-01T08:24:24.227Z,2.42
2019-06-01T08:26:28.536Z,3.00
2019-06-01T08:28:32.738Z,3.05
2019-06-01T08:30:36.342Z,2.80
2019-06-01T08:32:40.244Z,2.52
2019-06-01T08:34:44.651Z,2.90
2019-06-01T08:36:48.484Z,2.87
2019-06-01T08:38:52.382Z,2.87
2019-06-01T08:40:55.925Z,3.10
2019-06-01T08:42:59.686Z,3.75
2019-06-01T08:45:04.373Z,5.08
2019-06-01T08:47:08.318Z,5.60
2019-06-01T08:49:12.226Z,2.92
2019-06-01T08:51:16.123Z,3.22
2019-06-01T08:53:19.729Z,3.17
2019-06-01T08:55:24.041Z,2.85
2019-06-01T08:57:28.284Z,3.10
2019-06-01T08:59:32.569Z,3.35
2019-06-01T09:01:36.193Z,3.02
2019-06-01T09:03:46.322Z,4.67
2019-06-01T09:05:45.162Z,5.40
2019-06-01T09:07:49.025Z,4.08
2019-06-01T09:09:52.825Z,5.55
2019-06-01T09:11:56.649Z,8.00
2019-06-01T09:14:00.141Z,3.67
2019-06-01T09:16:04.109Z,4.40
2019-06-01T09:18:07.763Z,8.88
2019-06-01T09:20:16.157Z,4.70
2019-06-01T09:22:19.848Z,3.50
2019-06-01T09:24:23.415Z,3.22
2019-06-01T09:26:27.745Z,3.77
2019-06-01T09:28:32.185Z,3.58
2019-06-01T09:30:36.348Z,3.45
2019-06-01T09:32:40.394Z,4.37
2019-06-01T09:34:43.866Z,4.60
2019-06-01T09:36:47.762Z,4.05
2019-06-01T09:38:51.428Z,5.05
2019-06-01T09:40:55.120Z,4.15
2019-06-01T09:42:58.659Z,4.03
2019-06-01T09:45:02.198Z,3.52
2019-06-01T09:47:05.730Z,5.60
2019-06-01T09:49:09.296Z,4.92
2019-06-01T09:51:13.259Z,4.45
2019-06-01T09:53:16.893Z,4.28
2019-06-01T09:55:20.844Z,3.55
2019-06-01T09:57:24.769Z,3.83
2019-06-01T09:59:36.036Z,4.30
2019-06-01T10:01:41.793Z,3.92
2019-06-01T10:03:45.397Z,4.40
2019-06-01T10:06:01.303Z,4.15
2019-06-01T10:07:54.838Z,4.30
2019-06-01T10:09:58.414Z,4.90
2019-06-01T10:12:02.237Z,4.75
2019-06-01T10:14:05.972Z,7.35
2019-06-01T10:16:09.697Z,4.25
2019-06-01T10:18:13.549Z,3.98
2019-06-01T10:20:17.377Z,4.35
2019-06-01T10:22:21.253Z,3.55
2019-06-01T10:24:24.880Z,3.47
2019-06-01T10:26:29.365Z,3.00
2019-06-01T10:28:33.514Z,5.25
2019-06-01T10:30:37.896Z,5.10
2019-06-01T10:32:42.134Z,11.63
2019-06-01T10:34:46.312Z,5.20
2019-06-01T10:36:50.237Z,6.75
2019-06-01T10:38:53.761Z,4.20
2019-06-01T10:40:57.301Z,4.70
2019-06-01T10:43:01.331Z,4.10
2019-06-01T10:45:06.310Z,4.70
2019-06-01T10:47:09.866Z,6.33
2019-06-01T10:49:13.680Z,4.62
2019-06-01T10:51:18.094Z,4.00
2019-06-01T10:53:21.560Z,4.17
2019-06-01T10:55:25.203Z,4.00
2019-06-01T10:57:29.650Z,4.35
2019-06-01T10:59:34.294Z,5.15
2019-06-01T11:01:38.893Z,3.87
2019-06-01T11:03:42.848Z,4.95
2019-06-01T11:05:47.426Z,4.37
2019-06-01T11:07:51.074Z,4.03
2019-06-01T11:09:54.880Z,4.20
2019-06-01T11:11:58.422Z,4.15
2019-06-01T11:14:02.294Z,4.00
2019-06-01T11:16:05.846Z,4.28
2019-06-01T11:18:09.382Z,4.25
2019-06-01T11:20:13.350Z,4.40
2019-06-01T11:22:16.903Z,3.12
2019-06-01T11:24:20.629Z,3.40
2019-06-01T11:26:24.554Z,4.37
2019-06-01T11:28:28.365Z,4.65
2019-06-01T11:30:31.941Z,4.17
2019-06-01T11:32:36.041Z,4.20
2019-06-01T11:34:40.357Z,3.85
2019-06-01T11:37:03.659Z,5.42
2019-06-01T11:38:49.193Z,7.10
2019-06-01T11:40:53.042Z,4.85
2019-06-01T11:42:56.598Z,6.45
2019-06-01T11:45:00.153Z,5.22
2019-06-01T11:47:04.014Z,5.00
2019-06-01T11:49:07.485Z,5.58
2019-06-01T11:51:11.093Z,5.15
2019-06-01T11:53:14.656Z,6.20
2019-06-01T11:55:18.106Z,5.37
2019-06-01T11:57:21.960Z,5.25
2019-06-01T11:59:25.831Z,4.85
2019-06-01T12:01:29.741Z,4.08
2019-06-01T12:03:35.442Z,4.67
2019-06-01T12:05:39.932Z,9.13
2019-06-01T12:07:43.922Z,5.45
2019-06-01T12:09:47.498Z,7.65
2019-06-01T12:11:51.069Z,9.83
2019-06-01T12:13:58.725Z,8.15
2019-06-01T12:16:02.533Z,6.85
2019-06-01T12:18:07.737Z,8.45
2019-06-01T12:20:11.925Z,5.80
2019-06-01T12:22:15.862Z,12.70
2019-06-01T12:24:25.366Z,5.00
2019-06-01T12:26:24.917Z,4.92
2019-06-01T12:28:28.870Z,4.85
2019-06-01T12:30:32.401Z,4.95
2019-06-01T12:32:37.699Z,4.60
2019-06-01T12:34:41.944Z,5.42
2019-06-01T12:36:46.446Z,6.03
2019-06-01T12:38:54.197Z,5.12
2019-06-01T12:40:57.738Z,4.92
2019-06-01T12:43:01.344Z,5.65
2019-06-01T12:45:08.234Z,4.80
2019-06-01T12:47:12.126Z,5.20
2019-06-01T12:49:15.673Z,4.67
2019-06-01T12:51:19.198Z,4.95
2019-06-01T12:53:23.605Z,4.10
2019-06-01T12:55:27.548Z,3.62
2019-06-01T12:57:32.041Z,3.60
2019-06-01T12:59:35.859Z,3.67
2019-06-01T13:01:40.954Z,3.50
2019-06-01T13:03:45.590Z,3.55
2019-06-01T13:05:49.927Z,3.52
2019-06-01T13:08:01.701Z,3.50
2019-06-01T13:09:59.636Z,3.40
2019-06-01T13:12:03.699Z,3.98
2019-06-01T13:14:07.529Z,3.80
2019-06-01T13:16:11.380Z,3.58
2019-06-01T13:18:14.941Z,3.55
2019-06-01T13:20:18.582Z,3.55
2019-06-01T13:22:22.404Z,3.80
2019-06-01T13:24:25.942Z,3.80
2019-06-01T13:26:31.386Z,3.75
2019-06-01T13:28:38.323Z,3.83
2019-06-01T13:30:40.397Z,3.60
2019-06-01T13:32:44.432Z,3.95
2019-06-01T13:34:49.180Z,3.90
2019-06-01T13:36:54.630Z,3.90
2019-06-01T13:38:58.501Z,4.33
2019-06-01T13:41:03.006Z,3.90
2019-06-01T13:43:06.538Z,4.20
2019-06-01T13:45:10.535Z,4.05
2019-06-01T13:47:14.357Z,4.08
2019-06-01T13:49:17.822Z,4.58
2019-06-01T13:51:21.357Z,3.90
2019-06-01T13:53:24.898Z,4.35
2019-06-01T13:55:28.501Z,4.37
2019-06-01T13:57:32.829Z,4.17
2019-06-01T13:59:36.690Z,4.87
2019-06-01T14:01:40.225Z,4.10
2019-06-01T14:03:44.979Z,4.30
2019-06-01T14:05:48.900Z,4.47
2019-06-01T14:07:53.559Z,4.87
2019-06-01T14:09:57.073Z,4.75
2019-06-01T14:12:00.928Z,4.70
2019-06-01T14:14:05.071Z,5.10
2019-06-01T14:16:08.717Z,5.25
2019-06-01T14:18:12.378Z,5.10
2019-06-01T14:20:16.161Z,6.05
2019-06-01T14:22:19.702Z,5.08
2019-06-01T14:24:23.345Z,5.25
2019-06-01T14:26:27.699Z,4.85
2019-06-01T14:28:31.311Z,5.00
2019-06-01T14:30:35.161Z,5.42
2019-06-01T14:32:39.046Z,4.78
2019-06-01T14:34:42.553Z,4.90
2019-06-01T14:36:46.403Z,5.60
2019-06-01T14:38:52.932Z,5.10
2019-06-01T14:40:55.674Z,5.33
2019-06-01T14:42:59.486Z,5.30
2019-06-01T14:45:05.273Z,4.40
2019-06-01T14:47:08.859Z,4.40
2019-06-01T14:49:12.395Z,4.65
2019-06-01T14:51:16.228Z,5.03
2019-06-01T14:53:19.777Z,8.63
2019-06-01T14:55:23.706Z,5.80
2019-06-01T14:57:27.525Z,5.10
2019-06-01T14:59:31.429Z,5.12
2019-06-01T15:01:35.273Z,4.83
2019-06-01T15:03:39.110Z,5.08
2019-06-01T15:05:42.803Z,5.30
2019-06-01T15:07:46.351Z,5.60
2019-06-01T15:09:50.115Z,5.50
2019-06-01T15:11:54.482Z,6.35
2019-06-01T15:13:58.606Z,5.25
2019-06-01T15:16:02.298Z,5.67
2019-06-01T15:18:05.889Z,6.33
2019-06-01T15:20:10.299Z,6.35
2019-06-01T15:22:13.951Z,5.92
2019-06-01T15:24:17.785Z,4.97
2019-06-01T15:26:21.362Z,6.97
2019-06-01T15:28:24.892Z,5.20
2019-06-01T15:30:28.425Z,5.50
2019-06-01T15:32:32.378Z,5.33
2019-06-01T15:34:35.914Z,4.67
2019-06-01T15:36:40.309Z,5.33
2019-06-01T15:38:43.853Z,5.12
2019-06-01T15:40:47.386Z,5.30
2019-06-01T15:42:51.924Z,4.92
2019-06-01T15:44:57.233Z,6.10
2019-06-01T15:47:02.022Z,4.70
2019-06-01T15:49:05.835Z,5.65
2019-06-01T15:51:09.358Z,6.10
2019-06-01T15:53:12.921Z,5.92
2019-06-01T15:55:16.866Z,7.28
2019-06-01T15:57:20.437Z,5.22
2019-06-01T15:59:23.921Z,5.00
2019-06-01T16:01:27.526Z,4.58
2019-06-01T16:03:34.028Z,5.72
2019-06-01T16:05:36.432Z,5.00
2019-06-01T16:07:39.986Z,5.97
2019-06-01T16:09:43.938Z,5.70
2019-06-01T16:11:47.405Z,5.85
2019-06-01T16:13:50.937Z,4.53
2019-06-01T16:15:55.338Z,4.67
2019-06-01T16:18:00.088Z,4.55
2019-06-01T16:20:05.897Z,4.50
2019-06-01T16:22:09.474Z,16.87
2019-06-01T16:24:13.029Z,4.92
2019-06-01T16:26:16.748Z,4.95
2019-06-01T16:28:20.707Z,5.33
2019-06-01T16:30:24.317Z,6.70
2019-06-01T16:32:27.792Z,5.20
2019-06-01T16:34:31.572Z,10.10
2019-06-01T16:36:35.120Z,5.78
2019-06-01T16:38:38.822Z,5.03
2019-06-01T16:40:42.781Z,5.58
2019-06-01T16:42:47.366Z,4.85
2019-06-01T16:44:51.420Z,4.50
2019-06-01T16:46:55.563Z,5.25
2019-06-01T16:48:59.901Z,8.90
2019-06-01T16:51:04.171Z,5.37
2019-06-01T16:53:08.048Z,6.30
2019-06-01T16:55:12.369Z,6.33
2019-06-01T16:57:16.285Z,6.70
2019-06-01T16:59:19.936Z,7.83
2019-06-01T17:01:23.479Z,13.88
2019-06-01T17:03:27.393Z,9.00
2019-06-01T17:05:31.046Z,13.28
2019-06-01T17:07:34.975Z,28.00
2019-06-01T17:09:39.358Z,9.93
2019-06-01T17:11:45.861Z,33.15
2019-06-01T17:13:50.241Z,25.62
2019-06-01T17:15:53.784Z,27.62
2019-06-01T17:18:01.370Z,13.85
2019-06-01T17:20:03.346Z,33.00
2019-06-01T17:22:07.652Z,32.63
2019-06-01T17:24:12.177Z,15.38
2019-06-01T17:26:16.061Z,11.80
2019-06-01T17:28:20.189Z,32.67
2019-06-01T17:30:24.070Z,12.68
2019-06-01T17:32:27.723Z,23.83
2019-06-01T17:34:34.114Z,23.70
2019-06-01T17:36:37.665Z,15.18
2019-06-01T17:38:41.461Z,10.00
2019-06-01T17:40:45.171Z,11.90
2019-06-01T17:42:48.726Z,11.55
2019-06-01T17:44:52.625Z,11.75
2019-06-01T17:46:57.041Z,9.10
2019-06-01T17:49:00.613Z,8.08
2019-06-01T17:51:04.581Z,12.80
2019-06-01T17:53:08.831Z,21.25
2019-06-01T17:55:29.710Z,15.83
2019-06-01T17:57:33.671Z,17.05
2019-06-01T17:59:37.213Z,17.90
2019-06-01T18:01:42.437Z,30.72
2019-06-01T18:03:46.690Z,55.95
2019-06-01T18:05:50.529Z,22.50
2019-06-01T18:07:54.301Z,25.80
2019-06-01T18:09:57.929Z,65.45
2019-06-01T18:12:01.960Z,31.85
2019-06-01T18:14:08.236Z,19.20
2019-06-01T18:16:13.157Z,24.35
2019-06-01T18:18:17.053Z,37.30
2019-06-01T18:20:20.733Z,32.53
2019-06-01T18:22:24.515Z,49.42
2019-06-01T18:24:28.337Z,78.57
2019-06-01T18:26:32.238Z,34.30
2019-06-01T18:28:42.912Z,15.05
2019-06-01T18:30:49.999Z,12.00
2019-06-01T18:32:55.521Z,18.87
2019-06-01T18:34:59.137Z,10.40
2019-06-01T18:37:03.206Z,15.45
2019-06-01T18:39:07.647Z,29.85
2019-06-01T18:41:18.570Z,66.57
2019-06-01T18:43:19.976Z,83.17
2019-06-01T18:45:25.215Z,63.00
2019-06-01T18:47:32.474Z,120.65
2019-06-01T18:49:35.499Z,164.55
2019-06-01T18:51:39.478Z,32.23
2019-06-01T18:53:43.634Z,66.07
2019-06-01T18:55:47.350Z,249.40
2019-06-01T18:57:53.985Z,654.62
2019-06-01T18:59:57.603Z,211.32
2019-06-01T19:02:01.481Z,35.23
2019-06-01T19:04:05.106Z,31.17
2019-06-01T19:06:09.559Z,52.38
2019-06-01T19:08:13.823Z,50.63
2019-06-01T19:10:18.996Z,54.63
2019-06-01T19:12:24.522Z,42.43
2019-06-01T19:14:28.157Z,36.03
2019-06-01T19:16:31.813Z,54.60
2019-06-01T19:18:36.249Z,42.65
2019-06-01T19:20:40.663Z,31.57
2019-06-01T19:22:45.113Z,44.15
2019-06-01T19:24:49.215Z,51.35
2019-06-01T19:26:52.970Z,36.80
2019-06-01T19:28:56.507Z,41.48
2019-06-01T19:31:00.048Z,19.73
2019-06-01T19:33:04.173Z,18.87
2019-06-01T19:35:09.494Z,17.15
2019-06-01T19:37:13.153Z,18.42
2019-06-01T19:39:17.387Z,18.23
2019-06-01T19:41:21.581Z,16.15
2019-06-01T19:43:25.124Z,15.80
2019-06-01T19:45:29.617Z,21.42
2019-06-01T19:47:34.223Z,16.27
2019-06-01T19:49:37.764Z,14.10
2019-06-01T19:51:41.643Z,14.75
2019-06-01T19:53:45.189Z,15.63
2019-06-01T19:55:48.664Z,17.37
2019-06-01T19:57:52.620Z,21.07
2019-06-01T19:59:56.544Z,24.00
2019-06-01T20:02:00.174Z,36.03
2019-06-01T20:04:03.697Z,28.12
2019-06-01T20:06:07.573Z,18.75
2019-06-01T20:08:12.020Z,17.77
2019-06-01T20:10:18.515Z,19.62
2019-06-01T20:12:22.588Z,23.80
2019-06-01T20:14:26.271Z,24.23
2019-06-01T20:16:30.171Z,25.62
2019-06-01T20:18:34.122Z,26.97
2019-06-01T20:20:38.060Z,26.35
2019-06-01T20:22:41.669Z,23.60
2019-06-01T20:24:45.425Z,23.18
2019-06-01T20:26:49.694Z,23.30
2019-06-01T20:28:53.754Z,26.00
2019-06-01T20:30:57.732Z,24.15
2019-06-01T20:33:01.278Z,24.15
2019-06-01T20:35:06.284Z,25.52
2019-06-01T20:37:09.834Z,29.00
2019-06-01T20:39:14.246Z,29.52
2019-06-01T20:41:18.638Z,30.60
2019-06-01T20:43:22.931Z,29.70
2019-06-01T20:45:26.555Z,28.77
2019-06-01T20:47:31.091Z,24.50
2019-06-01T20:49:34.701Z,23.07
2019-06-01T20:51:38.545Z,22.00
2019-06-01T20:53:42.449Z,19.62
2019-06-01T20:55:46.382Z,18.42
2019-06-01T20:57:50.265Z,15.63
2019-06-01T20:59:54.166Z,14.65
2019-06-01T21:01:57.818Z,15.48
2019-06-01T21:04:01.667Z,16.65
2019-06-01T21:06:05.353Z,17.57
2019-06-01T21:08:09.279Z,22.73
2019-06-01T21:10:14.103Z,24.87
2019-06-01T21:12:18.497Z,33.23
2019-06-01T21:14:22.014Z,45.28
2019-06-01T21:16:25.566Z,53.40
2019-06-01T21:18:29.214Z,57.95
2019-06-01T21:20:32.839Z,41.92
2019-06-01T21:22:36.445Z,36.42
2019-06-01T21:24:40.406Z,33.98
2019-06-01T21:26:44.044Z,33.78
2019-06-01T21:28:47.513Z,34.05
2019-06-01T21:30:50.999Z,29.77
2019-06-01T21:32:54.533Z,27.48
2019-06-01T21:34:58.548Z,28.00
2019-06-01T21:37:02.329Z,25.85
2019-06-01T21:39:08.159Z,26.12
2019-06-01T21:41:11.700Z,26.93
2019-06-01T21:43:26.013Z,25.17
2019-06-01T21:45:21.753Z,25.70
2019-06-01T21:47:25.859Z,24.87
2019-06-01T21:49:29.522Z,26.77
2019-06-01T21:51:33.210Z,28.17
2019-06-01T21:53:36.766Z,36.13
2019-06-01T21:55:40.442Z,44.48
2019-06-01T21:57:44.323Z,41.00
2019-06-01T21:59:48.149Z,35.73
2019-06-01T22:01:51.829Z,40.30
2019-06-01T22:03:55.372Z,37.67
2019-06-01T22:05:59.134Z,41.77
2019-06-01T22:08:02.845Z,38.25
2019-06-01T22:10:06.853Z,36.38
2019-06-01T22:12:10.327Z,31.55
2019-06-01T22:14:14.253Z,26.97
2019-06-01T22:16:18.029Z,25.23
2019-06-01T22:18:21.665Z,24.57
2019-06-01T22:20:26.057Z,24.75
2019-06-01T22:22:29.778Z,23.90
2019-06-01T22:24:33.646Z,29.23
2019-06-01T22:26:37.194Z,25.97
2019-06-01T22:28:41.174Z,28.02
2019-06-01T22:30:45.062Z,33.23
2019-06-01T22:32:50.144Z,32.60
2019-06-01T22:34:54.525Z,29.75
2019-06-01T22:36:58.229Z,31.27
2019-06-01T22:39:02.271Z,45.85
2019-06-01T22:41:06.290Z,25.88
2019-06-01T22:43:09.837Z,24.95
2019-06-01T22:45:13.650Z,22.90
2019-06-01T22:47:17.297Z,22.00
2019-06-01T22:49:20.764Z,21.73
2019-06-01T22:51:24.954Z,20.23
2019-06-01T22:53:28.932Z,17.95
2019-06-01T22:55:32.691Z,17.00
2019-06-01T22:57:36.289Z,20.35
2019-06-01T22:59:39.900Z,19.45
2019-06-01T23:01:43.549Z,19.75
2019-06-01T23:03:47.329Z,19.50
2019-06-01T23:05:50.958Z,21.73
2019-06-01T23:07:54.505Z,21.62
2019-06-01T23:09:58.086Z,22.77
2019-06-01T23:12:01.590Z,21.90
2019-06-01T23:14:06.069Z,21.30
2019-06-01T23:16:09.634Z,21.33
2019-06-01T23:18:13.210Z,21.65
2019-06-01T23:20:16.733Z,20.92
2019-06-01T23:22:21.652Z,22.05
2019-06-01T23:24:26.114Z,22.48
2019-06-01T23:26:30.292Z,21.05
2019-06-01T23:28:38.516Z,35.00
2019-06-01T23:30:41.324Z,44.30
2019-06-01T23:32:44.830Z,55.63
2019-06-01T23:34:48.670Z,32.50
2019-06-01T23:36:52.216Z,27.60
2019-06-01T23:38:56.041Z,25.15
2019-06-01T23:40:59.510Z,23.32
2019-06-01T23:43:03.065Z,24.15
2019-06-01T23:45:07.649Z,24.07
2019-06-01T23:47:12.097Z,24.60
2019-06-01T23:49:16.381Z,23.32
2019-06-01T23:51:19.925Z,22.60
2019-06-01T23:53:23.785Z,21.97
2019-06-01T23:55:27.774Z,23.15
2019-06-01T23:57:32.068Z,22.82
2019-06-01T23:59:36.037Z,25.48
